Time;durP1;ratioP1;P1;durP2;ratioP2;P2;SDS_P1;SDS_P2;PMS_P1;PMS_P2;Temp;Humidity;BMP_temperature;BMP_pressure;BME280_temperature;BME280_humidity;BME280_pressure;Samples;Min_cycle;Max_cycle;Signal;HPM_P1;HPM_P2
2023/09/21 00:00:13;;;;;;;4.65;3.20;;;22.10;40.40;;;;;;352323;28;1115;-55
2023/09/21 00:00:23;;;;;;;4.43;3.20;;;22.10;40.00;;;;;;350995;28;1342;-56
2023/09/21 00:00:34;;;;;;;4.55;3.15;;;22.00;39.70;;;;;;351531;28;1015;-55
2023/09/21 00:00:45;;;;;;;4.20;3.00;;;22.00;39.70;;;;;;352342;28;1054;-55
2023/09/21 00:00:59;;;;;;;4.43;3.05;;;22.00;39.80;;;;;;352470;28;1054;-53
2023/09/21 00:01:12;;;;;;;5.00;3.00;;;22.10;40.10;;;;;;352464;28;995;-55
2023/09/21 00:01:24;;;;;;;5.65;3.08;;;22.00;40.20;;;;;;352360;28;1094;-55
2023/09/21 00:01:38;;;;;;;5.38;3.38;;;22.00;40.00;;;;;;351445;28;1271;-55
2023/09/21 00:01:49;;;;;;;5.10;3.28;;;22.00;40.00;;;;;;352497;28;881;-55
2023/09/21 00:02:00;;;;;;;4.57;3.00;;;22.00;39.90;;;;;;352348;28;1111;-55
2023/09/21 00:02:12;;;;;;;4.20;2.60;;;22.00;39.90;;;;;;352466;28;939;-55
2023/09/21 00:02:23;;;;;;;4.18;2.60;;;22.00;39.80;;;;;;352497;28;1201;-55
2023/09/21 00:02:34;;;;;;;4.82;2.88;;;22.00;40.00;;;;;;352561;28;1679;-54
2023/09/21 00:02:49;;;;;;;4.45;2.90;;;22.00;40.00;;;;;;352412;28;1066;-55
2023/09/21 00:03:00;;;;;;;3.75;2.80;;;22.00;39.80;;;;;;352553;28;1134;-54
2023/09/21 00:03:14;;;;;;;3.58;2.70;;;22.00;39.80;;;;;;352520;28;1103;-54
2023/09/21 00:03:28;;;;;;;3.95;2.72;;;22.00;40.00;;;;;;352493;28;976;-53
2023/09/21 00:03:39;;;;;;;4.10;2.70;;;22.00;40.30;;;;;;352545;28;1141;-55
2023/09/21 00:03:50;;;;;;;3.85;2.95;;;22.00;40.20;;;;;;352538;28;1015;-53
2023/09/21 00:04:01;;;;;;;4.63;3.47;;;22.00;40.00;;;;;;352564;27;1476;-54
2023/09/21 00:04:12;;;;;;;5.78;4.22;;;22.00;40.30;;;;;;352573;27;1033;-55
2023/09/21 00:04:22;;;;;;;6.35;4.50;;;22.00;40.00;;;;;;352613;28;919;-55
2023/09/21 00:04:35;;;;;;;5.57;4.20;;;22.00;40.20;;;;;;352475;28;1545;-54
2023/09/21 00:04:45;;;;;;;4.55;3.47;;;22.00;40.20;;;;;;352607;28;971;-54
2023/09/21 00:04:56;;;;;;;4.30;3.03;;;22.00;40.20;;;;;;352406;28;1024;-54
2023/09/21 00:05:09;;;;;;;3.92;2.65;;;22.00;40.40;;;;;;352545;28;935;-55
2023/09/21 00:05:23;;;;;;;3.45;2.45;;;22.00;40.50;;;;;;352498;28;1085;-54
2023/09/21 00:05:35;;;;;;;4.03;2.55;;;22.00;40.70;;;;;;352567;28;1125;-55
2023/09/21 00:05:47;;;;;;;4.55;2.70;;;22.00;40.60;;;;;;352474;28;1007;-54
2023/09/21 00:05:58;;;;;;;4.22;2.65;;;22.00;40.50;;;;;;352596;28;904;-53
2023/09/21 00:06:09;;;;;;;4.40;2.90;;;22.00;40.50;;;;;;352432;28;1421;-56
2023/09/21 00:06:20;;;;;;;4.57;2.95;;;21.90;40.40;;;;;;352543;28;991;-55
2023/09/21 00:06:31;;;;;;;5.50;3.63;;;22.00;40.30;;;;;;352430;28;987;-55
2023/09/21 00:06:41;;;;;;;5.87;4.30;;;22.00;40.40;;;;;;352567;28;963;-54
2023/09/21 00:06:53;;;;;;;6.40;4.68;;;22.00;40.30;;;;;;352384;28;1254;-55
2023/09/21 00:07:05;;;;;;;7.20;4.43;;;22.00;40.50;;;;;;352545;28;983;-54
2023/09/21 00:07:18;;;;;;;7.03;4.30;;;22.00;40.40;;;;;;352428;28;1208;-53
2023/09/21 00:07:29;;;;;;;6.88;4.15;;;21.90;40.20;;;;;;352524;28;1892;-55
2023/09/21 00:07:39;;;;;;;5.95;3.90;;;22.00;40.10;;;;;;352532;27;909;-54
2023/09/21 00:07:50;;;;;;;5.70;3.60;;;21.90;40.00;;;;;;352580;28;907;-55
2023/09/21 00:08:01;;;;;;;5.43;3.17;;;22.00;40.20;;;;;;352506;28;1085;-55
2023/09/21 00:08:12;;;;;;;5.00;3.05;;;21.90;40.10;;;;;;352580;28;1455;-54
2023/09/21 00:08:24;;;;;;;4.57;2.85;;;22.00;40.00;;;;;;352535;28;1701;-54
2023/09/21 00:08:35;;;;;;;4.60;2.85;;;21.90;40.10;;;;;;352471;28;1909;-54
2023/09/21 00:08:48;;;;;;;4.70;3.00;;;21.90;40.20;;;;;;352532;28;1095;-55
2023/09/21 00:08:59;;;;;;;4.22;3.10;;;21.90;40.40;;;;;;352578;28;892;-53
2023/09/21 00:09:10;;;;;;;4.93;3.65;;;21.90;40.30;;;;;;352435;28;1790;-55
2023/09/21 00:09:20;;;;;;;5.45;3.55;;;21.90;40.20;;;;;;352614;28;808;-55
2023/09/21 00:09:32;;;;;;;5.80;3.43;;;21.90;40.00;;;;;;352516;28;991;-54
2023/09/21 00:09:43;;;;;;;5.32;3.00;;;21.90;40.20;;;;;;352488;28;1107;-55
2023/09/21 00:09:54;;;;;;;4.90;2.85;;;21.90;40.20;;;;;;352572;28;857;-54
2023/09/21 00:10:06;;;;;;;5.17;2.80;;;21.90;40.40;;;;;;352514;28;999;-55
2023/09/21 00:10:18;;;;;;;4.65;2.80;;;21.90;40.40;;;;;;352439;28;1095;-55
2023/09/21 00:10:29;;;;;;;4.78;2.88;;;21.90;40.30;;;;;;352545;28;1113;-56
2023/09/21 00:10:39;;;;;;;4.13;2.88;;;21.90;40.40;;;;;;352529;28;1170;-54
2023/09/21 00:10:51;;;;;;;3.97;2.80;;;21.90;40.30;;;;;;352381;28;1099;-55
2023/09/21 00:11:04;;;;;;;4.50;3.17;;;21.90;40.40;;;;;;352533;28;1006;-54
2023/09/21 00:11:15;;;;;;;5.10;3.33;;;21.90;40.30;;;;;;352515;27;1094;-55
2023/09/21 00:11:26;;;;;;;4.88;3.33;;;21.90;40.20;;;;;;352526;28;930;-54
2023/09/21 00:11:37;;;;;;;4.85;3.00;;;21.90;40.20;;;;;;352592;28;2057;-54
2023/09/21 00:11:47;;;;;;;5.78;3.10;;;21.90;40.10;;;;;;352566;28;1244;-55
2023/09/21 00:11:58;;;;;;;6.35;3.20;;;21.90;40.10;;;;;;352453;28;920;-55
2023/09/21 00:12:10;;;;;;;5.75;3.33;;;21.90;40.10;;;;;;352543;28;1178;-54
2023/09/21 00:12:20;;;;;;;4.22;2.83;;;21.90;40.10;;;;;;352554;28;929;-54
2023/09/21 00:12:31;;;;;;;3.90;2.70;;;21.90;40.20;;;;;;352361;28;1114;-55
2023/09/21 00:12:42;;;;;;;4.07;2.58;;;21.90;40.30;;;;;;352531;28;2201;-54
2023/09/21 00:12:53;;;;;;;4.38;2.80;;;21.90;40.30;;;;;;352545;27;1014;-54
2023/09/21 00:13:04;;;;;;;4.00;2.67;;;21.90;40.30;;;;;;352455;28;1335;-55
2023/09/21 00:13:15;;;;;;;4.00;2.70;;;21.90;40.30;;;;;;352463;28;1017;-54
2023/09/21 00:13:26;;;;;;;4.43;2.75;;;21.90;40.30;;;;;;352521;28;991;-55
2023/09/21 00:13:39;;;;;;;4.55;3.00;;;21.90;40.30;;;;;;352528;28;1435;-55
2023/09/21 00:13:50;;;;;;;4.05;2.90;;;21.90;40.30;;;;;;352543;28;1023;-55
2023/09/21 00:14:00;;;;;;;4.47;2.70;;;21.90;40.20;;;;;;352488;28;1086;-54
2023/09/21 00:14:11;;;;;;;4.85;2.53;;;21.90;40.20;;;;;;352543;28;1005;-55
2023/09/21 00:14:22;;;;;;;4.80;2.47;;;21.90;40.30;;;;;;352488;28;1065;-55
2023/09/21 00:14:35;;;;;;;4.05;2.53;;;21.90;40.20;;;;;;352587;28;1014;-53
2023/09/21 00:14:46;;;;;;;4.13;2.63;;;21.90;40.20;;;;;;352475;27;1003;-54
2023/09/21 00:14:58;;;;;;;4.25;2.58;;;21.90;40.20;;;;;;352558;27;935;-55
2023/09/21 00:15:12;;;;;;;4.85;2.65;;;21.90;40.20;;;;;;352512;28;1212;-54
2023/09/21 00:15:29;;;;;;;4.43;2.70;;;21.90;40.20;;;;;;352570;28;859;-55
2023/09/21 00:15:43;;;;;;;3.83;2.70;;;21.90;40.70;;;;;;352506;28;1094;-55
2023/09/21 00:15:55;;;;;;;3.92;2.70;;;21.90;40.70;;;;;;352569;28;995;-54
2023/09/21 00:16:11;;;;;;;3.28;2.58;;;21.90;40.70;;;;;;352586;27;1010;-54
2023/09/21 00:16:25;;;;;;;3.58;2.55;;;21.90;40.80;;;;;;352425;28;1057;-53
2023/09/21 00:16:36;;;;;;;4.22;2.80;;;21.90;40.70;;;;;;352581;28;888;-54
2023/09/21 00:16:46;;;;;;;4.28;3.05;;;21.90;40.70;;;;;;352493;28;988;-55
2023/09/21 00:16:57;;;;;;;4.18;3.20;;;21.90;40.80;;;;;;352492;28;1026;-55
2023/09/21 00:17:08;;;;;;;3.60;2.90;;;21.90;40.80;;;;;;352485;28;983;-54
2023/09/21 00:17:19;;;;;;;3.63;2.67;;;21.90;40.70;;;;;;352577;28;943;-55
2023/09/21 00:17:32;;;;;;;3.87;2.43;;;21.90;40.60;;;;;;352520;28;1015;-54
2023/09/21 00:17:43;;;;;;;4.20;2.38;;;21.90;40.60;;;;;;352577;28;1188;-55
2023/09/21 00:17:55;;;;;;;4.15;2.50;;;21.80;40.70;;;;;;352474;28;1069;-55
2023/09/21 00:18:06;;;;;;;5.20;2.72;;;21.90;40.70;;;;;;352566;28;1021;-55
2023/09/21 00:18:21;;;;;;;5.00;2.85;;;21.80;40.70;;;;;;352546;28;972;-55
2023/09/21 00:18:32;;;;;;;3.64;2.56;;;21.90;40.70;;;;;;352547;28;988;-55
2023/09/21 00:18:43;;;;;;;3.37;2.40;;;21.80;40.60;;;;;;352492;28;984;-55
2023/09/21 00:18:54;;;;;;;3.22;2.58;;;21.80;40.70;;;;;;352582;28;864;-55
2023/09/21 00:19:07;;;;;;;3.80;2.90;;;21.90;40.80;;;;;;352551;28;856;-55
2023/09/21 00:19:17;;;;;;;3.95;2.85;;;21.90;40.80;;;;;;352441;28;1109;-55
2023/09/21 00:19:28;;;;;;;4.23;2.73;;;21.90;40.80;;;;;;352543;28;1034;-55
2023/09/21 00:19:39;;;;;;;4.03;2.75;;;21.90;40.90;;;;;;352536;27;1156;-56
2023/09/21 00:19:50;;;;;;;5.32;2.70;;;21.80;40.90;;;;;;352466;28;1021;-56
2023/09/21 00:20:11;;;;;;;5.20;2.80;;;21.90;40.90;;;;;;352528;28;1221;-55
2023/09/21 00:20:45;;;;;;;4.55;2.78;;;21.80;40.80;;;;;;352443;28;1042;-54
2023/09/21 00:20:55;;;;;;;3.58;2.60;;;21.80;40.90;;;;;;352099;28;1664;-55
2023/09/21 00:21:06;;;;;;;3.88;2.65;;;21.80;41.00;;;;;;352536;28;986;-55
2023/09/21 00:21:17;;;;;;;4.43;2.83;;;21.80;41.20;;;;;;352504;28;888;-54
2023/09/21 00:21:27;;;;;;;4.70;2.80;;;21.80;41.10;;;;;;352385;28;1115;-55
2023/09/21 00:21:38;;;;;;;4.40;2.73;;;21.80;41.40;;;;;;352466;28;1118;-55
2023/09/21 00:21:49;;;;;;;4.25;2.70;;;21.80;41.30;;;;;;352550;28;1768;-55
2023/09/21 00:22:00;;;;;;;3.80;2.70;;;21.80;41.40;;;;;;352434;28;1209;-54
2023/09/21 00:22:11;;;;;;;4.00;3.00;;;21.80;41.60;;;;;;352579;28;903;-54
2023/09/21 00:22:22;;;;;;;4.53;3.50;;;21.80;41.50;;;;;;352563;28;918;-55
2023/09/21 00:22:33;;;;;;;5.70;4.03;;;21.80;41.40;;;;;;352455;28;1180;-56
2023/09/21 00:22:43;;;;;;;6.13;4.28;;;21.80;41.30;;;;;;352568;28;956;-55
2023/09/21 00:22:55;;;;;;;6.53;4.60;;;21.80;41.30;;;;;;352506;28;1019;-55
2023/09/21 00:23:06;;;;;;;5.22;4.05;;;21.80;41.30;;;;;;352433;28;1006;-55
2023/09/21 00:23:18;;;;;;;4.90;3.83;;;21.80;41.30;;;;;;352513;28;1087;-54
2023/09/21 00:23:30;;;;;;;5.95;4.00;;;21.80;41.30;;;;;;352568;28;946;-55
2023/09/21 00:23:43;;;;;;;7.78;4.70;;;21.80;41.30;;;;;;352487;28;1017;-55
2023/09/21 00:23:54;;;;;;;7.50;5.15;;;21.80;41.20;;;;;;352511;28;1030;-55
2023/09/21 00:24:06;;;;;;;6.95;5.15;;;21.80;41.10;;;;;;352366;28;1589;-56
2023/09/21 00:24:17;;;;;;;5.78;4.43;;;21.80;41.10;;;;;;352566;28;900;-54
2023/09/21 00:24:30;;;;;;;5.13;3.67;;;21.80;41.10;;;;;;352524;28;1062;-55
2023/09/21 00:24:41;;;;;;;5.10;3.30;;;21.80;41.20;;;;;;352437;27;974;-55
2023/09/21 00:24:52;;;;;;;5.10;3.43;;;21.80;41.30;;;;;;352428;28;1287;-55
2023/09/21 00:25:04;;;;;;;5.05;3.50;;;21.80;41.40;;;;;;352541;28;1136;-54
2023/09/21 00:25:17;;;;;;;4.07;3.15;;;21.80;41.40;;;;;;352443;28;1007;-54
2023/09/21 00:25:30;;;;;;;3.70;2.67;;;21.80;41.30;;;;;;352547;28;1058;-55
2023/09/21 00:25:40;;;;;;;5.25;3.00;;;21.80;41.60;;;;;;352493;28;1058;-54
2023/09/21 00:26:00;;;;;;;6.00;3.20;;;21.80;42.00;;;;;;352486;28;1226;-55
2023/09/21 00:26:10;;;;;;;4.53;3.08;;;21.80;42.00;;;;;;352562;28;943;-54
2023/09/21 00:26:21;;;;;;;3.93;2.90;;;21.80;41.80;;;;;;352526;28;1090;-55
2023/09/21 00:26:34;;;;;;;3.90;2.72;;;21.80;42.00;;;;;;352419;28;1061;-54
2023/09/21 00:26:50;;;;;;;3.95;2.92;;;21.80;42.40;;;;;;352565;28;856;-54
2023/09/21 00:27:02;;;;;;;4.20;2.95;;;21.80;42.30;;;;;;352430;28;1130;-56
2023/09/21 00:27:13;;;;;;;4.70;2.92;;;21.70;41.80;;;;;;352571;28;1030;-55
2023/09/21 00:27:28;;;;;;;4.68;2.70;;;21.80;41.70;;;;;;352509;28;983;-55
2023/09/21 00:27:39;;;;;;;4.47;2.42;;;21.80;41.70;;;;;;352470;28;1141;-55
2023/09/21 00:27:50;;;;;;;4.82;2.58;;;21.70;41.60;;;;;;352574;28;849;-54
2023/09/21 00:28:14;;;;;;;4.88;2.85;;;21.70;41.70;;;;;;352504;28;1063;-54
2023/09/21 00:28:25;;;;;;;3.80;2.75;;;21.70;41.70;;;;;;352547;28;999;-54
2023/09/21 00:28:36;;;;;;;3.60;2.70;;;21.70;41.80;;;;;;352312;28;1952;-55
2023/09/21 00:28:51;;;;;;;4.15;2.60;;;21.70;41.60;;;;;;352460;28;1146;-55
2023/09/21 00:29:03;;;;;;;4.97;2.67;;;21.70;41.60;;;;;;352550;28;881;-55
2023/09/21 00:29:15;;;;;;;4.82;2.60;;;21.70;41.60;;;;;;352472;28;1034;-55
2023/09/21 00:29:30;;;;;;;5.07;2.58;;;21.70;41.70;;;;;;352541;28;1093;-55
2023/09/21 00:29:41;;;;;;;4.15;2.38;;;21.70;41.80;;;;;;352592;28;908;-55
2023/09/21 00:29:52;;;;;;;4.33;2.40;;;21.70;42.10;;;;;;352519;28;972;-54
2023/09/21 00:30:03;;;;;;;4.40;2.60;;;21.70;42.00;;;;;;352608;28;825;-56
2023/09/21 00:30:14;;;;;;;4.82;2.70;;;21.70;41.90;;;;;;352554;28;1059;-55
2023/09/21 00:30:25;;;;;;;4.55;2.65;;;21.70;41.80;;;;;;352461;28;901;-55
2023/09/21 00:30:37;;;;;;;5.07;2.58;;;21.70;41.70;;;;;;352467;28;1055;-55
2023/09/21 00:30:49;;;;;;;5.47;2.55;;;21.70;41.70;;;;;;352434;28;1510;-54
2023/09/21 00:31:02;;;;;;;5.05;2.30;;;21.70;41.70;;;;;;352422;28;873;-54
2023/09/21 00:31:13;;;;;;;3.40;2.25;;;21.70;41.70;;;;;;352484;28;1019;-54
2023/09/21 00:31:24;;;;;;;3.50;2.28;;;21.70;41.80;;;;;;352474;28;991;-55
2023/09/21 00:31:35;;;;;;;3.70;2.40;;;21.70;41.90;;;;;;352425;28;1133;-54
2023/09/21 00:31:45;;;;;;;3.97;2.40;;;21.70;42.10;;;;;;352530;28;1078;-55
2023/09/21 00:31:57;;;;;;;4.40;2.40;;;21.70;42.10;;;;;;352419;28;1162;-55
2023/09/21 00:32:08;;;;;;;4.60;2.60;;;21.70;42.20;;;;;;352462;28;1085;-54
2023/09/21 00:32:20;;;;;;;4.60;2.60;;;21.70;42.00;;;;;;352440;28;1423;-55
2023/09/21 00:32:30;;;;;;;3.50;2.53;;;21.70;41.90;;;;;;352544;28;967;-54
2023/09/21 00:32:41;;;;;;;3.40;2.50;;;21.70;41.90;;;;;;352340;28;1018;-54
2023/09/21 00:32:52;;;;;;;3.50;2.50;;;21.70;42.00;;;;;;352509;28;1003;-55
2023/09/21 00:33:07;;;;;;;4.25;2.67;;;21.70;42.00;;;;;;352425;28;1170;-55
2023/09/21 00:33:17;;;;;;;4.60;2.53;;;21.70;42.10;;;;;;352482;28;870;-54
2023/09/21 00:33:30;;;;;;;4.75;2.67;;;21.70;42.10;;;;;;352453;28;1086;-56
2023/09/21 00:33:41;;;;;;;4.22;2.58;;;21.70;42.10;;;;;;352511;28;1188;-55
2023/09/21 00:33:51;;;;;;;4.38;2.58;;;21.70;42.20;;;;;;352403;28;1169;-55
2023/09/21 00:34:04;;;;;;;3.97;2.60;;;21.70;42.30;;;;;;352425;28;1154;-55
2023/09/21 00:34:16;;;;;;;5.22;2.97;;;21.70;42.20;;;;;;352442;28;904;-55
2023/09/21 00:34:27;;;;;;;4.63;2.80;;;21.70;42.30;;;;;;352282;28;1501;-54
2023/09/21 00:34:38;;;;;;;3.53;2.58;;;21.70;42.30;;;;;;352392;28;1213;-56
2023/09/21 00:34:51;;;;;;;3.53;2.63;;;21.70;42.30;;;;;;352533;28;1089;-54
2023/09/21 00:35:06;;;;;;;3.65;2.63;;;21.70;42.30;;;;;;352411;28;1385;-54
2023/09/21 00:35:18;;;;;;;4.25;2.38;;;21.70;42.50;;;;;;352367;28;1622;-54
2023/09/21 00:35:29;;;;;;;4.82;2.40;;;21.70;42.30;;;;;;352401;28;1036;-54
2023/09/21 00:35:40;;;;;;;4.47;2.50;;;21.70;42.20;;;;;;352500;28;909;-55
2023/09/21 00:35:50;;;;;;;4.25;2.53;;;21.60;42.20;;;;;;352441;28;1019;-55
2023/09/21 00:36:04;;;;;;;3.83;2.53;;;21.70;42.20;;;;;;352439;28;1111;-55
2023/09/21 00:36:17;;;;;;;3.33;2.47;;;21.70;42.20;;;;;;352420;28;1020;-54
2023/09/21 00:36:28;;;;;;;3.22;2.40;;;21.70;42.20;;;;;;352536;28;997;-54
2023/09/21 00:36:40;;;;;;;3.67;2.40;;;21.60;42.20;;;;;;352415;28;911;-54
2023/09/21 00:36:53;;;;;;;3.72;2.45;;;21.70;42.30;;;;;;352486;28;1026;-54
2023/09/21 00:37:04;;;;;;;4.10;2.60;;;21.60;42.30;;;;;;352468;28;1068;-53
2023/09/21 00:37:14;;;;;;;3.90;2.50;;;21.70;42.30;;;;;;352468;28;1165;-54
2023/09/21 00:37:25;;;;;;;3.87;2.40;;;21.70;42.50;;;;;;352413;28;909;-55
2023/09/21 00:37:40;;;;;;;4.80;2.30;;;21.70;42.50;;;;;;352610;27;927;-53
2023/09/21 00:37:50;;;;;;;4.75;2.38;;;21.70;42.50;;;;;;352438;28;1125;-55
2023/09/21 00:38:01;;;;;;;4.37;2.40;;;21.60;42.70;;;;;;352439;28;1157;-55
2023/09/21 00:38:15;;;;;;;3.80;2.70;;;21.70;42.60;;;;;;352440;28;1054;-54
2023/09/21 00:38:26;;;;;;;4.28;2.90;;;21.70;42.50;;;;;;352507;28;2004;-54
2023/09/21 00:38:37;;;;;;;4.20;2.85;;;21.70;42.40;;;;;;352451;28;1145;-54
2023/09/21 00:38:48;;;;;;;4.93;3.00;;;21.70;42.30;;;;;;352412;28;1059;-54
2023/09/21 00:38:58;;;;;;;4.50;2.83;;;21.70;42.30;;;;;;352527;28;1031;-54
2023/09/21 00:39:11;;;;;;;4.35;2.70;;;21.70;42.40;;;;;;352463;28;1648;-55
2023/09/21 00:39:22;;;;;;;3.53;2.40;;;21.70;42.40;;;;;;352365;28;1141;-55
2023/09/21 00:39:34;;;;;;;3.72;2.45;;;21.70;42.40;;;;;;352583;28;852;-54
2023/09/21 00:39:47;;;;;;;4.12;2.40;;;21.70;42.50;;;;;;352460;27;1399;-54
2023/09/21 00:39:58;;;;;;;3.90;2.42;;;21.70;42.50;;;;;;352487;28;892;-54
2023/09/21 00:40:18;;;;;;;3.45;2.50;;;21.60;42.50;;;;;;352488;28;1023;-55
2023/09/21 00:40:28;;;;;;;4.00;2.80;;;21.70;42.70;;;;;;352481;28;983;-53
2023/09/21 00:40:39;;;;;;;3.95;2.70;;;21.60;42.90;;;;;;352324;28;1086;-54
2023/09/21 00:40:56;;;;;;;3.92;2.63;;;21.60;42.90;;;;;;352437;28;1189;-55
2023/09/21 00:41:07;;;;;;;3.97;2.60;;;21.60;42.70;;;;;;352494;28;1213;-55
2023/09/21 00:41:18;;;;;;;4.03;2.50;;;21.60;42.70;;;;;;352404;28;1507;-53
2023/09/21 00:41:32;;;;;;;3.70;2.37;;;21.60;42.60;;;;;;352508;28;816;-55
2023/09/21 00:41:43;;;;;;;4.25;2.50;;;21.60;42.50;;;;;;352526;28;934;-54
2023/09/21 00:41:53;;;;;;;4.30;2.47;;;21.60;42.50;;;;;;352433;27;1796;-54
2023/09/21 00:42:04;;;;;;;3.38;2.40;;;21.60;42.60;;;;;;352495;28;960;-54
2023/09/21 00:42:15;;;;;;;3.90;2.38;;;21.60;42.90;;;;;;352496;28;1046;-54
2023/09/21 00:42:25;;;;;;;5.33;2.60;;;21.60;42.90;;;;;;352503;28;813;-54
2023/09/21 00:42:36;;;;;;;5.05;2.58;;;21.60;42.90;;;;;;352390;28;1027;-54
2023/09/21 00:42:47;;;;;;;4.13;2.50;;;21.60;42.90;;;;;;352579;28;1007;-54
2023/09/21 00:43:01;;;;;;;3.35;2.35;;;21.60;42.90;;;;;;352490;28;1197;-54
2023/09/21 00:43:23;;;;;;;3.17;2.17;;;21.60;42.90;;;;;;352432;28;994;-54
2023/09/21 00:43:34;;;;;;;3.90;2.15;;;21.60;43.00;;;;;;352445;28;1668;-54
2023/09/21 00:43:45;;;;;;;5.57;2.85;;;21.60;43.00;;;;;;352552;28;964;-54
2023/09/21 00:43:56;;;;;;;6.18;3.13;;;21.60;43.00;;;;;;352436;28;1038;-54
2023/09/21 00:44:08;;;;;;;4.45;3.00;;;21.60;43.10;;;;;;352530;28;1018;-54
2023/09/21 00:44:22;;;;;;;3.72;2.60;;;21.60;43.10;;;;;;352417;28;1070;-54
2023/09/21 00:44:32;;;;;;;3.38;2.40;;;21.60;43.20;;;;;;352516;28;920;-54
2023/09/21 00:44:43;;;;;;;3.50;2.43;;;21.60;43.20;;;;;;352530;28;972;-54
2023/09/21 00:44:54;;;;;;;3.92;2.58;;;21.60;43.30;;;;;;352467;28;1035;-54
2023/09/21 00:45:07;;;;;;;3.90;2.45;;;21.60;43.30;;;;;;352336;28;1320;-55
2023/09/21 00:45:22;;;;;;;3.90;2.38;;;21.60;43.40;;;;;;352512;28;919;-54
2023/09/21 00:45:38;;;;;;;3.65;2.30;;;21.60;43.40;;;;;;352509;28;852;-54
2023/09/21 00:45:53;;;;;;;3.25;2.08;;;21.60;43.60;;;;;;352536;28;916;-54
2023/09/21 00:46:04;;;;;;;3.55;2.20;;;21.60;43.50;;;;;;352445;28;1202;-55
2023/09/21 00:46:17;;;;;;;3.53;2.35;;;21.60;43.50;;;;;;352549;28;963;-54
2023/09/21 00:46:28;;;;;;;3.90;2.47;;;21.60;43.40;;;;;;352469;28;947;-54
2023/09/21 00:46:40;;;;;;;4.28;2.65;;;21.60;43.40;;;;;;352518;28;1031;-55
2023/09/21 00:46:51;;;;;;;4.75;2.70;;;21.60;43.40;;;;;;352414;28;1034;-55
2023/09/21 00:47:02;;;;;;;4.80;2.63;;;21.60;43.40;;;;;;352485;28;1030;-54
2023/09/21 00:47:13;;;;;;;4.57;2.53;;;21.60;43.50;;;;;;352428;28;1201;-55
2023/09/21 00:47:24;;;;;;;4.10;2.40;;;21.60;43.60;;;;;;352479;28;1122;-54
2023/09/21 00:47:39;;;;;;;3.45;2.42;;;21.60;43.70;;;;;;352389;28;1130;-54
2023/09/21 00:47:54;;;;;;;2.78;2.20;;;21.60;43.60;;;;;;352539;28;1025;-54
2023/09/21 00:48:10;;;;;;;2.90;2.17;;;21.60;43.80;;;;;;352419;28;904;-54
2023/09/21 00:48:23;;;;;;;3.35;2.40;;;21.60;43.80;;;;;;352477;28;1002;-55
2023/09/21 00:48:38;;;;;;;3.13;2.30;;;21.60;43.80;;;;;;352493;28;1040;-53
2023/09/21 00:48:50;;;;;;;3.22;2.22;;;21.60;43.80;;;;;;352539;28;915;-54
2023/09/21 00:49:00;;;;;;;3.60;2.40;;;21.60;43.80;;;;;;352528;28;896;-55
2023/09/21 00:49:12;;;;;;;4.10;2.40;;;21.60;43.90;;;;;;352511;28;1166;-54
2023/09/21 00:49:23;;;;;;;3.72;2.20;;;21.60;43.90;;;;;;352414;28;1097;-54
2023/09/21 00:49:36;;;;;;;3.38;2.10;;;21.60;44.00;;;;;;352477;28;1173;-55
2023/09/21 00:49:46;;;;;;;3.55;2.03;;;21.60;43.90;;;;;;352519;28;2163;-54
2023/09/21 00:49:58;;;;;;;3.63;2.03;;;21.60;43.90;;;;;;352375;28;1028;-53
2023/09/21 00:50:12;;;;;;;3.40;2.10;;;21.60;43.90;;;;;;352441;28;983;-54
2023/09/21 00:50:24;;;;;;;3.72;2.33;;;21.60;44.00;;;;;;352511;28;911;-54
2023/09/21 00:50:36;;;;;;;3.70;2.40;;;21.60;43.90;;;;;;352479;28;1001;-54
2023/09/21 00:50:47;;;;;;;3.35;2.28;;;21.60;44.00;;;;;;352435;28;1030;-55
2023/09/21 00:50:58;;;;;;;2.85;2.17;;;21.60;44.10;;;;;;352439;28;1227;-54
2023/09/21 00:51:12;;;;;;;3.15;2.03;;;21.50;44.00;;;;;;352416;28;995;-55
2023/09/21 00:51:22;;;;;;;3.80;2.20;;;21.60;44.10;;;;;;352482;28;963;-55
2023/09/21 00:51:34;;;;;;;4.03;2.38;;;21.60;44.10;;;;;;352485;28;1038;-55
2023/09/21 00:51:45;;;;;;;4.32;2.40;;;21.60;44.20;;;;;;352419;28;1073;-55
2023/09/21 00:51:57;;;;;;;4.45;2.22;;;21.60;44.10;;;;;;352446;28;1217;-55
2023/09/21 00:52:11;;;;;;;5.05;2.35;;;21.60;44.20;;;;;;352475;28;1034;-55
2023/09/21 00:52:22;;;;;;;4.65;2.42;;;21.60;44.20;;;;;;352406;28;1025;-55
2023/09/21 00:52:33;;;;;;;3.55;2.30;;;21.60;44.20;;;;;;352407;28;1146;-55
2023/09/21 00:52:45;;;;;;;3.38;2.22;;;21.60;44.20;;;;;;352428;28;994;-55
2023/09/21 00:52:56;;;;;;;2.88;2.10;;;21.60;44.20;;;;;;352458;28;1051;-55
2023/09/21 00:53:12;;;;;;;3.35;2.10;;;21.60;44.30;;;;;;352501;28;1097;-55
2023/09/21 00:53:27;;;;;;;3.47;2.10;;;21.60;44.10;;;;;;352481;28;876;-55
2023/09/21 00:53:39;;;;;;;3.10;2.15;;;21.60;44.00;;;;;;352457;28;1050;-54
2023/09/21 00:53:50;;;;;;;3.55;2.30;;;21.60;44.20;;;;;;352429;28;987;-54
2023/09/21 00:54:07;;;;;;;3.63;2.40;;;21.60;44.20;;;;;;352418;28;1050;-54
2023/09/21 00:54:19;;;;;;;3.67;2.25;;;21.60;44.10;;;;;;352456;28;1043;-54
2023/09/21 00:54:30;;;;;;;3.50;2.28;;;21.50;44.20;;;;;;352371;28;1094;-53
2023/09/21 00:54:41;;;;;;;3.33;2.28;;;21.50;44.30;;;;;;352511;28;1046;-54
2023/09/21 00:54:52;;;;;;;3.05;2.13;;;21.50;44.50;;;;;;352405;28;1106;-54
2023/09/21 00:55:05;;;;;;;3.13;2.20;;;21.60;44.50;;;;;;352358;28;1019;-55
2023/09/21 00:55:18;;;;;;;3.00;2.25;;;21.50;44.70;;;;;;352480;28;990;-55
2023/09/21 00:55:39;;;;;;;3.28;2.38;;;21.50;44.50;;;;;;352415;28;1014;-55
2023/09/21 00:55:55;;;;;;;3.25;2.33;;;21.50;44.40;;;;;;352454;28;1077;-55
2023/09/21 00:56:09;;;;;;;3.10;2.13;;;21.50;44.40;;;;;;352387;28;1111;-55
2023/09/21 00:56:20;;;;;;;2.63;2.00;;;21.50;44.50;;;;;;352418;28;1915;-55
2023/09/21 00:56:31;;;;;;;2.94;2.20;;;21.50;44.60;;;;;;352455;28;943;-55
2023/09/21 00:56:42;;;;;;;3.07;2.23;;;21.50;44.60;;;;;;352451;28;841;-54
2023/09/21 00:56:53;;;;;;;3.28;2.30;;;21.50;44.60;;;;;;352502;28;983;-54
2023/09/21 00:57:05;;;;;;;3.38;2.38;;;21.50;44.70;;;;;;352407;28;2113;-55
2023/09/21 00:57:16;;;;;;;3.65;2.40;;;21.40;44.70;;;;;;352499;28;1074;-54
2023/09/21 00:57:27;;;;;;;3.63;2.42;;;21.50;44.70;;;;;;352356;28;924;-55
2023/09/21 00:57:40;;;;;;;3.40;2.35;;;21.50;44.70;;;;;;352158;28;1353;-54
2023/09/21 00:57:59;;;;;;;3.13;2.22;;;21.50;44.70;;;;;;352341;28;959;-55
2023/09/21 00:58:11;;;;;;;3.20;2.20;;;21.50;44.70;;;;;;352444;28;1059;-55
2023/09/21 00:58:25;;;;;;;4.32;2.50;;;21.50;44.80;;;;;;352477;28;1057;-54
2023/09/21 00:58:39;;;;;;;4.45;2.40;;;21.50;44.90;;;;;;352435;28;1097;-53
2023/09/21 00:58:53;;;;;;;4.00;2.25;;;21.50;45.00;;;;;;352340;28;1181;-54
2023/09/21 00:59:05;;;;;;;3.60;2.40;;;21.50;45.10;;;;;;352474;28;1061;-55
2023/09/21 00:59:16;;;;;;;4.05;2.53;;;21.40;45.20;;;;;;352395;28;1202;-54
2023/09/21 00:59:29;;;;;;;3.88;2.45;;;21.40;45.20;;;;;;352507;28;824;-54
2023/09/21 00:59:45;;;;;;;3.67;2.45;;;21.40;45.20;;;;;;352355;28;1194;-55
2023/09/21 00:59:57;;;;;;;3.30;2.38;;;21.50;45.30;;;;;;352455;28;1233;-55
2023/09/21 01:00:13;;;;;;;4.57;2.28;;;21.40;45.40;;;;;;352445;28;987;-55
2023/09/21 01:00:25;;;;;;;4.65;2.13;;;21.40;45.40;;;;;;352310;27;1665;-55
2023/09/21 01:00:39;;;;;;;3.95;2.10;;;21.50;45.30;;;;;;352510;28;1015;-54
2023/09/21 01:00:51;;;;;;;4.13;2.20;;;21.40;45.30;;;;;;352482;28;876;-54
2023/09/21 01:01:05;;;;;;;3.70;2.20;;;21.40;45.40;;;;;;352461;28;1337;-54
2023/09/21 01:01:27;;;;;;;3.28;2.10;;;21.50;45.40;;;;;;352331;28;1134;-55
2023/09/21 01:01:38;;;;;;;3.45;2.15;;;21.40;45.50;;;;;;352415;28;979;-55
2023/09/21 01:01:49;;;;;;;3.72;2.13;;;21.50;45.40;;;;;;352465;28;1388;-55
2023/09/21 01:02:00;;;;;;;3.33;2.08;;;21.50;45.50;;;;;;352337;28;906;-54
2023/09/21 01:02:11;;;;;;;3.37;2.30;;;21.50;45.50;;;;;;352421;28;1087;-54
2023/09/21 01:02:22;;;;;;;3.05;2.20;;;21.50;45.40;;;;;;352479;28;1058;-54
2023/09/21 01:02:33;;;;;;;4.00;2.42;;;21.50;45.30;;;;;;352438;28;1039;-54
2023/09/21 01:02:46;;;;;;;4.15;2.33;;;21.40;45.20;;;;;;352436;27;1039;-54
2023/09/21 01:03:37;;;;;;;4.18;2.45;;;21.50;45.20;;;;;;352380;28;971;-54
2023/09/21 01:03:39;;;;;;;2.83;1.92;;;21.50;45.20;;;;;;350996;28;1938;-54
2023/09/21 01:03:52;;;;;;;2.90;2.00;;;21.50;45.30;;;;;;352575;28;880;-55
2023/09/21 01:04:06;;;;;;;3.72;2.13;;;21.50;45.30;;;;;;352492;28;980;-55
2023/09/21 01:04:16;;;;;;;4.25;2.38;;;21.50;45.30;;;;;;352408;28;1117;-54
2023/09/21 01:04:27;;;;;;;4.35;2.30;;;21.50;45.30;;;;;;352457;28;1078;-54
2023/09/21 01:04:38;;;;;;;3.97;2.15;;;21.50;45.40;;;;;;352374;28;1418;-55
2023/09/21 01:04:49;;;;;;;3.78;2.15;;;21.50;45.50;;;;;;352351;28;1511;-54
2023/09/21 01:05:00;;;;;;;3.47;2.20;;;21.50;45.70;;;;;;352436;27;1544;-55
2023/09/21 01:05:13;;;;;;;3.25;2.17;;;21.40;45.90;;;;;;352452;28;1133;-53
2023/09/21 01:05:24;;;;;;;3.10;2.10;;;21.50;45.90;;;;;;352323;28;1790;-54
2023/09/21 01:05:36;;;;;;;3.65;2.10;;;21.50;45.90;;;;;;352467;28;1011;-53
2023/09/21 01:05:49;;;;;;;3.53;2.10;;;21.50;45.90;;;;;;352360;28;1662;-54